Time;durP1;ratioP1;P1;durP2;ratioP2;P2;SDS_P1;SDS_P2;PMS_P1;PMS_P2;Temp;Humidity;BMP_temperature;BMP_pressure;BME280_temperature;BME280_humidity;BME280_pressure;Samples;Min_cycle;Max_cycle;Signal;HPM_P1;HPM_P2
2023/01/28 09:53:56;;;;;;;1999.90;999.90;;;;;;;;;;5070623;27;20386;-75
2023/01/28 09:56:26;;;;;;;1999.90;999.90;;;;;;;;;;5075209;28;20068;-76
2023/01/28 09:58:52;;;;;;;1999.90;999.90;;;;;;;;;;5076103;28;20040;-74
2023/01/28 10:01:33;;;;;;;1999.90;999.90;;;;;;;;;;5077305;28;20110;-73
2023/01/28 10:04:04;;;;;;;1999.90;999.90;;;;;;;;;;5073650;28;20459;-74
2023/01/28 10:06:41;;;;;;;1999.90;999.90;;;;;;;;;;5079122;28;20055;-74
2023/01/28 10:09:26;;;;;;;1999.90;999.90;;;;;;;;;;5078093;28;20087;-74
2023/01/28 10:12:05;;;;;;;1999.90;999.90;;;;;;;;;;5079953;28;20535;-74
2023/01/28 10:14:43;;;;;;;1999.90;999.90;;;;;;;;;;5077109;28;20084;-74
2023/01/28 10:17:15;;;;;;;1999.90;999.90;;;;;;;;;;5075787;28;20083;-73
2023/01/28 10:19:44;;;;;;;1999.90;999.90;;;;;;;;;;5079018;28;20044;-74
2023/01/28 10:22:14;;;;;;;1999.90;999.90;;;;;;;;;;5083014;28;20083;-74
2023/01/28 10:24:48;;;;;;;1999.90;999.90;;;;;;;;;;5078196;28;20087;-76
2023/01/28 10:27:16;;;;;;;1999.90;999.90;;;;;;;;;;5070177;28;20045;-76
2023/01/28 10:29:45;;;;;;;1999.90;999.90;;;;;;;;;;5079549;28;20072;-75
2023/01/28 10:32:17;;;;;;;1999.90;999.90;;;;;;;;;;5070790;28;20068;-75
2023/01/28 10:34:44;;;;;;;1999.90;999.90;;;;;;;;;;5081297;28;20154;-76
2023/01/28 10:37:12;;;;;;;1999.90;999.90;;;;;;;;;;5068968;28;20099;-75
2023/01/28 10:39:39;;;;;;;1999.90;999.90;;;;;;;;;;5074049;28;20075;-74
2023/01/28 10:42:17;;;;;;;1999.90;999.90;;;;;;;;;;5073697;28;20080;-74
2023/01/28 10:44:45;;;;;;;1999.90;999.90;;;;;;;;;;5082682;28;20492;-75
2023/01/28 10:47:15;;;;;;;1999.90;999.90;;;;;;;;;;5081679;28;20039;-73
2023/01/28 10:49:44;;;;;;;1999.90;999.90;;;;;;;;;;5074910;28;20098;-73
2023/01/28 10:52:12;;;;;;;1999.90;999.90;;;;;;;;;;5072230;28;20048;-71
2023/01/28 10:54:38;;;;;;;1999.90;999.90;;;;;;;;;;5066445;28;20098;-74
2023/01/28 10:57:11;;;;;;;1999.90;999.90;;;;;;;;;;5075477;28;20080;-71
2023/01/28 10:59:40;;;;;;;1999.90;999.90;;;;;;;;;;5075191;28;20080;-72
2023/01/28 11:02:24;;;;;;;1999.90;999.90;;;;;;;;;;5073229;28;20060;-72
2023/01/28 11:05:01;;;;;;;1999.90;999.90;;;;;;;;;;5055099;28;20131;-71
2023/01/28 11:07:27;;;;;;;1999.90;999.90;;;;;;;;;;5064188;28;20072;-72
2023/01/28 11:09:54;;;;;;;1999.90;999.90;;;;;;;;;;5067251;28;20080;-71
2023/01/28 11:12:23;;;;;;;1999.90;999.90;;;;;;;;;;5060895;28;20091;-71
2023/01/28 11:14:53;;;;;;;1999.90;999.90;;;;;;;;;;5052833;28;20102;-72
2023/01/28 11:17:23;;;;;;;1999.90;999.90;;;;;;;;;;5062093;28;20528;-71
2023/01/28 11:19:51;;;;;;;1999.90;999.90;;;;;;;;;;5059984;28;20059;-72
2023/01/28 11:22:23;;;;;;;1999.90;999.90;;;;;;;;;;5057397;28;20053;-73
2023/01/28 11:24:50;;;;;;;1999.90;999.90;;;;;;;;;;5058626;28;20048;-74
2023/01/28 11:27:18;;;;;;;1999.90;999.90;;;;;;;;;;5057093;28;20110;-74
2023/01/28 11:29:45;;;;;;;1999.90;999.90;;;;;;;;;;5059799;28;20049;-73
2023/01/28 11:32:21;;;;;;;1999.90;999.90;;;;;;;;;;5057011;28;20117;-73
2023/01/28 11:34:51;;;;;;;1999.90;999.90;;;;;;;;;;5060144;28;20056;-73
2023/01/28 11:37:21;;;;;;;1999.90;999.90;;;;;;;;;;5055596;28;20049;-72
2023/01/28 11:39:48;;;;;;;1999.90;999.90;;;;;;;;;;5057649;28;20493;-73
2023/01/28 11:42:18;;;;;;;1999.90;999.90;;;;;;;;;;5061707;28;20135;-73
2023/01/28 11:44:45;;;;;;;1999.90;999.90;;;;;;;;;;5061214;28;20127;-72
2023/01/28 11:47:23;;;;;;;1999.90;999.90;;;;;;;;;;5058808;28;20091;-72
2023/01/28 11:50:01;;;;;;;1999.90;999.90;;;;;;;;;;5056515;28;20053;-72
2023/01/28 11:52:35;;;;;;;1999.90;999.90;;;;;;;;;;5060380;28;20077;-72
2023/01/28 11:55:11;;;;;;;1999.90;999.90;;;;;;;;;;5063624;28;20040;-73
2023/01/28 11:57:38;;;;;;;;;;;;;;;;;;5062570;28;20106;-73
2023/01/28 12:00:30;;;;;;;1999.90;999.90;;;;;;;;;;5061174;28;19972;-72
2023/01/28 12:03:03;;;;;;;1999.90;999.90;;;;;;;;;;5057536;28;20135;-73
2023/01/28 12:05:48;;;;;;;1999.90;999.90;;;;;;;;;;5051592;28;20437;-72
2023/01/28 12:08:22;;;;;;;1999.90;999.90;;;;;;;;;;5065633;28;20075;-73
2023/01/28 12:10:55;;;;;;;1999.90;999.90;;;;;;;;;;5051697;28;20053;-73
2023/01/28 12:13:33;;;;;;;1999.90;999.90;;;;;;;;;;5058346;28;20443;-73
2023/01/28 12:16:19;;;;;;;1999.90;999.90;;;;;;;;;;5054522;28;20126;-73
2023/01/28 12:19:01;;;;;;;1999.90;999.90;;;;;;;;;;5058893;28;20468;-72
2023/01/28 12:21:38;;;;;;;1999.90;999.90;;;;;;;;;;5057990;28;20045;-73
2023/01/28 12:24:16;;;;;;;1999.90;999.90;;;;;;;;;;5061728;28;20080;-73
2023/01/28 12:26:49;;;;;;;1999.90;999.90;;;;;;;;;;5060546;28;20072;-72
2023/01/28 12:29:24;;;;;;;1999.90;999.90;;;;;;;;;;5054220;28;20480;-72
2023/01/28 12:31:58;;;;;;;1999.90;999.90;;;;;;;;;;5057724;28;20107;-73
2023/01/28 12:34:40;;;;;;;1999.90;999.90;;;;;;;;;;5058798;28;20049;-74
2023/01/28 12:37:10;;;;;;;1999.90;999.90;;;;;;;;;;5057994;28;20495;-73
2023/01/28 12:39:48;;;;;;;1999.90;999.90;;;;;;;;;;5062747;28;20083;-74
2023/01/28 12:42:18;;;;;;;1999.90;999.90;;;;;;;;;;5050866;28;20075;-73
2023/01/28 12:44:49;;;;;;;1999.90;999.90;;;;;;;;;;5061875;28;20092;-72
2023/01/28 12:47:19;;;;;;;1999.90;999.90;;;;;;;;;;5061315;28;20078;-73
2023/01/28 12:49:51;;;;;;;1999.90;999.90;;;;;;;;;;5060318;28;20080;-72
2023/01/28 12:52:20;;;;;;;1999.90;999.90;;;;;;;;;;5050618;28;20092;-72
2023/01/28 12:54:55;;;;;;;1999.90;999.90;;;;;;;;;;5052747;28;20072;-72
2023/01/28 12:57:25;;;;;;;1999.90;999.90;;;;;;;;;;5063052;28;20052;-72
2023/01/28 12:59:53;;;;;;;1999.90;999.90;;;;;;;;;;5060205;28;20102;-72
2023/01/28 13:02:24;;;;;;;1999.90;999.90;;;;;;;;;;5064906;28;20060;-72
2023/01/28 13:04:57;;;;;;;1999.90;999.90;;;;;;;;;;5067999;28;20112;-70
2023/01/28 13:07:26;;;;;;;1999.90;999.90;;;;;;;;;;5065985;28;20049;-71
2023/01/28 13:09:57;;;;;;;1999.90;999.90;;;;;;;;;;5062320;28;20045;-71
2023/01/28 13:12:24;;;;;;;1999.90;999.90;;;;;;;;;;5058757;28;20073;-71
2023/01/28 13:14:51;;;;;;;1999.90;999.90;;;;;;;;;;5056503;28;20077;-71
2023/01/28 13:17:27;;;;;;;1999.90;999.90;;;;;;;;;;5058297;28;20118;-71
2023/01/28 13:19:56;;;;;;;1999.90;999.90;;;;;;;;;;5054064;28;20068;-71
2023/01/28 13:22:28;;;;;;;1999.90;999.90;;;;;;;;;;5062447;28;20072;-71
2023/01/28 13:24:55;;;;;;;1999.90;999.90;;;;;;;;;;5062267;28;20129;-71
2023/01/28 13:27:24;;;;;;;1999.90;999.90;;;;;;;;;;5055434;28;20128;-71
2023/01/28 13:30:01;;;;;;;1999.90;999.90;;;;;;;;;;5054295;28;20072;-72
2023/01/28 13:32:33;;;;;;;1999.90;999.90;;;;;;;;;;5050615;28;20084;-72
2023/01/28 13:35:05;;;;;;;1999.90;999.90;;;;;;;;;;5059907;28;20087;-72
2023/01/28 13:37:34;;;;;;;1999.90;999.90;;;;;;;;;;5054305;28;20077;-72
2023/01/28 13:40:04;;;;;;;1999.90;999.90;;;;;;;;;;5055326;28;20081;-72
2023/01/28 13:42:31;;;;;;;1999.90;999.90;;;;;;;;;;5057853;28;20189;-72
2023/01/28 13:45:20;;;;;;;1999.90;999.90;;;;;;;;;;5056477;28;20057;-72
2023/01/28 13:47:48;;;;;;;1999.90;999.90;;;;;;;;;;5049668;28;20067;-71
2023/01/28 13:50:18;;;;;;;1999.90;999.90;;;;;;;;;;5054573;28;20053;-72
2023/01/28 13:52:48;;;;;;;1999.90;999.90;;;;;;;;;;5057142;28;20049;-72
2023/01/28 13:55:18;;;;;;;1999.90;999.90;;;;;;;;;;5058995;28;20123;-72
2023/01/28 13:58:13;;;;;;;1999.90;999.90;;;;;;;;;;5058382;28;20079;-72
2023/01/28 14:00:48;;;;;;;1999.90;999.90;;;;;;;;;;5058715;28;20040;-72
2023/01/28 14:03:33;;;;;;;1999.90;999.90;;;;;;;;;;5057961;28;20080;-72
2023/01/28 14:06:21;;;;;;;1999.90;999.90;;;;;;;;;;5055241;28;20068;-72
2023/01/28 14:09:04;;;;;;;1999.90;999.90;;;;;;;;;;5058769;28;20057;-72
2023/01/28 14:11:51;;;;;;;1999.90;999.90;;;;;;;;;;5060693;28;20052;-72
2023/01/28 14:14:38;;;;;;;1999.90;999.90;;;;;;;;;;5055074;28;20573;-72
2023/01/28 14:17:05;;;;;;;;;;;;;;;;;;5056077;28;20091;-71
2023/01/28 14:19:34;;;;;;;1999.90;999.90;;;;;;;;;;5057694;28;20019;-72
2023/01/28 14:22:07;;;;;;;1999.90;999.90;;;;;;;;;;5058478;28;20045;-72
2023/01/28 14:24:34;;;;;;;1999.90;999.90;;;;;;;;;;5049893;28;20056;-72
2023/01/28 14:27:06;;;;;;;1999.90;999.90;;;;;;;;;;5056349;28;20084;-72
2023/01/28 14:29:43;;;;;;;1999.90;999.90;;;;;;;;;;5054018;28;20072;-72
2023/01/28 14:34:54;;;;;;;1999.90;999.90;;;;;;;;;;5058262;28;20595;-72
2023/01/28 14:37:25;;;;;;;1999.90;999.90;;;;;;;;;;5059159;28;20072;-72
2023/01/28 14:39:53;;;;;;;1999.90;999.90;;;;;;;;;;5059562;28;20081;-72
2023/01/28 14:42:22;;;;;;;1999.90;999.90;;;;;;;;;;5061567;28;20077;-71
2023/01/28 14:44:54;;;;;;;1999.90;999.90;;;;;;;;;;5059143;28;20084;-72
2023/01/28 14:47:35;;;;;;;1999.90;999.90;;;;;;;;;;5061084;28;20124;-72
2023/01/28 14:50:19;;;;;;;1999.90;999.90;;;;;;;;;;5053467;28;20045;-72
2023/01/28 14:53:03;;;;;;;1999.90;999.90;;;;;;;;;;5063617;28;20478;-72
2023/01/28 14:55:36;;;;;;;1999.90;999.90;;;;;;;;;;5060827;28;20049;-72
2023/01/28 14:58:05;;;;;;;1999.90;999.90;;;;;;;;;;5062119;28;20127;-73
2023/01/28 15:00:34;;;;;;;1999.90;999.90;;;;;;;;;;5065581;28;20076;-72
2023/01/28 15:03:01;;;;;;;1999.90;999.90;;;;;;;;;;5066082;28;20052;-72
2023/01/28 15:05:30;;;;;;;1999.90;999.90;;;;;;;;;;5067356;28;20048;-72
2023/01/28 15:07:58;;;;;;;1999.90;999.90;;;;;;;;;;5058560;28;20060;-72
2023/01/28 15:10:28;;;;;;;1999.90;999.90;;;;;;;;;;5053229;28;20052;-71
2023/01/28 15:12:56;;;;;;;1999.90;999.90;;;;;;;;;;5059509;28;20080;-72
2023/01/28 15:15:28;;;;;;;1999.90;999.90;;;;;;;;;;5064728;28;20068;-72
2023/01/28 15:17:59;;;;;;;1999.90;999.90;;;;;;;;;;5063744;28;20475;-72
2023/01/28 15:20:27;;;;;;;1999.90;999.90;;;;;;;;;;5062868;28;20048;-72
2023/01/28 15:22:54;;;;;;;1999.90;999.90;;;;;;;;;;5059935;28;20055;-71
2023/01/28 15:25:23;;;;;;;1999.90;999.90;;;;;;;;;;5061125;28;20076;-71
2023/01/28 15:27:52;;;;;;;1999.90;999.90;;;;;;;;;;5055311;28;20130;-72
2023/01/28 15:30:22;;;;;;;1999.90;999.90;;;;;;;;;;5058077;28;20085;-72
2023/01/28 15:32:57;;;;;;;1999.90;999.90;;;;;;;;;;5060506;28;20489;-71
2023/01/28 15:35:24;;;;;;;1999.90;999.90;;;;;;;;;;5063478;28;20211;-72
2023/01/28 15:37:51;;;;;;;1999.90;999.90;;;;;;;;;;5067994;28;20068;-71
2023/01/28 15:40:19;;;;;;;1999.90;999.90;;;;;;;;;;5063584;28;20130;-72
2023/01/28 15:42:48;;;;;;;1999.90;999.90;;;;;;;;;;5056447;28;20051;-72
2023/01/28 15:45:17;;;;;;;1999.90;999.90;;;;;;;;;;5060347;28;20061;-72
2023/01/28 15:47:44;;;;;;;1999.90;999.90;;;;;;;;;;5055028;28;20037;-71
2023/01/28 15:50:17;;;;;;;1999.90;999.90;;;;;;;;;;5056668;28;20079;-72
2023/01/28 15:52:45;;;;;;;1999.90;999.90;;;;;;;;;;5063020;28;20151;-71
2023/01/28 15:55:30;;;;;;;1999.90;999.90;;;;;;;;;;5058488;28;20048;-71
2023/01/28 15:58:09;;;;;;;1999.90;999.90;;;;;;;;;;5061477;28;20480;-72
2023/01/28 16:00:36;;;;;;;1999.90;999.90;;;;;;;;;;5064329;28;20493;-72
2023/01/28 16:03:08;;;;;;;1999.90;999.90;;;;;;;;;;5061995;28;20091;-73
2023/01/28 16:05:37;;;;;;;1999.90;999.90;;;;;;;;;;5061845;28;20056;-71
2023/01/28 16:08:08;;;;;;;1999.90;999.90;;;;;;;;;;5061822;28;20079;-72
2023/01/28 16:10:35;;;;;;;1999.90;999.90;;;;;;;;;;5061833;28;20080;-72
2023/01/28 16:13:06;;;;;;;1999.90;999.90;;;;;;;;;;5058763;28;20044;-71
2023/01/28 16:15:33;;;;;;;1999.90;999.90;;;;;;;;;;5055336;28;20452;-72
2023/01/28 16:18:00;;;;;;;1999.90;999.90;;;;;;;;;;5064237;28;20053;-72
2023/01/28 16:20:29;;;;;;;1999.90;999.90;;;;;;;;;;5063715;28;20048;-72
2023/01/28 16:22:57;;;;;;;1999.90;999.90;;;;;;;;;;5061556;28;20045;-72
2023/01/28 16:25:28;;;;;;;1999.90;999.90;;;;;;;;;;5057586;28;20110;-72
2023/01/28 16:27:55;;;;;;;1999.90;999.90;;;;;;;;;;5057412;28;20056;-71
2023/01/28 16:30:23;;;;;;;1999.90;999.90;;;;;;;;;;5057375;28;20073;-71
2023/01/28 16:32:49;;;;;;;1999.90;999.90;;;;;;;;;;5054849;28;20105;-72
2023/01/28 16:35:18;;;;;;;1999.90;999.90;;;;;;;;;;5056751;28;20108;-72
2023/01/28 16:37:44;;;;;;;1999.90;999.90;;;;;;;;;;5056484;28;20080;-72
2023/01/28 16:40:13;;;;;;;1999.90;999.90;;;;;;;;;;5053744;28;20152;-71
2023/01/28 16:42:40;;;;;;;1999.90;999.90;;;;;;;;;;5058538;28;20109;-71
2023/01/28 16:45:07;;;;;;;1999.90;999.90;;;;;;;;;;5060199;28;20057;-72
2023/01/28 16:47:35;;;;;;;1999.90;999.90;;;;;;;;;;5057966;28;20489;-72
2023/01/28 16:50:01;;;;;;;1999.90;999.90;;;;;;;;;;5060087;28;20133;-72
2023/01/28 16:52:28;;;;;;;1999.90;999.90;;;;;;;;;;5056199;28;20652;-72
2023/01/28 16:54:54;;;;;;;1999.90;999.90;;;;;;;;;;5060760;28;20056;-72
2023/01/28 16:57:22;;;;;;;1999.90;999.90;;;;;;;;;;5057268;28;20099;-72
2023/01/28 16:59:48;;;;;;;1999.90;999.90;;;;;;;;;;5059950;28;20049;-72
2023/01/28 17:02:16;;;;;;;1999.90;999.90;;;;;;;;;;5060131;28;20044;-72
2023/01/28 17:04:44;;;;;;;1999.90;999.90;;;;;;;;;;5057875;28;20053;-72
2023/01/28 17:07:11;;;;;;;1999.90;999.90;;;;;;;;;;5056401;28;20049;-72
2023/01/28 17:09:37;;;;;;;1999.90;999.90;;;;;;;;;;5055844;28;20076;-72
2023/01/28 17:12:04;;;;;;;1999.90;999.90;;;;;;;;;;5059647;28;20049;-72
2023/01/28 17:14:31;;;;;;;1999.90;999.90;;;;;;;;;;5062896;28;20044;-72
2023/01/28 17:16:58;;;;;;;1999.90;999.90;;;;;;;;;;5062752;28;20076;-72
2023/01/28 17:19:24;;;;;;;1999.90;999.90;;;;;;;;;;5060085;28;20513;-73
2023/01/28 17:21:52;;;;;;;1999.90;999.90;;;;;;;;;;5054749;28;20539;-72
2023/01/28 17:24:18;;;;;;;1999.90;999.90;;;;;;;;;;5057130;28;20083;-73
2023/01/28 17:26:45;;;;;;;1999.90;999.90;;;;;;;;;;5056936;28;20585;-71
2023/01/28 17:29:11;;;;;;;1999.90;999.90;;;;;;;;;;5062260;28;20551;-72
2023/01/28 17:31:38;;;;;;;1999.90;999.90;;;;;;;;;;5060733;28;20095;-72
2023/01/28 17:34:06;;;;;;;1999.90;999.90;;;;;;;;;;5059351;28;20073;-72
2023/01/28 17:36:33;;;;;;;1999.90;999.90;;;;;;;;;;5050683;28;20045;-72
2023/01/28 17:39:01;;;;;;;1999.90;999.90;;;;;;;;;;5057919;28;20110;-72
2023/01/28 17:41:27;;;;;;;1999.90;999.90;;;;;;;;;;5066573;28;20135;-72
2023/01/28 17:43:55;;;;;;;1999.90;999.90;;;;;;;;;;5061533;28;20217;-72
2023/01/28 17:46:24;;;;;;;1999.90;999.90;;;;;;;;;;5052994;28;20068;-72
2023/01/28 17:48:50;;;;;;;1999.90;999.90;;;;;;;;;;5064155;28;20076;-72
2023/01/28 17:51:18;;;;;;;1999.90;999.90;;;;;;;;;;5054191;28;20068;-72
2023/01/28 17:53:45;;;;;;;1999.90;999.90;;;;;;;;;;5054040;28;20535;-72
2023/01/28 17:56:17;;;;;;;1999.90;999.90;;;;;;;;;;5061385;28;20088;-72
2023/01/28 17:58:44;;;;;;;1999.90;999.90;;;;;;;;;;5050423;28;20041;-72
2023/01/28 18:01:10;;;;;;;1999.90;999.90;;;;;;;;;;5061195;28;20049;-72
2023/01/28 18:03:37;;;;;;;1999.90;999.90;;;;;;;;;;5059674;28;20132;-72
2023/01/28 18:06:06;;;;;;;1999.90;999.90;;;;;;;;;;5058473;28;20106;-72
2023/01/28 18:08:32;;;;;;;1999.90;999.90;;;;;;;;;;5059427;28;20045;-72
2023/01/28 18:11:01;;;;;;;1999.90;999.90;;;;;;;;;;5061084;28;20044;-72
2023/01/28 18:13:29;;;;;;;1999.90;999.90;;;;;;;;;;5059582;28;20127;-73
2023/01/28 18:15:56;;;;;;;1999.90;999.90;;;;;;;;;;5062944;28;20585;-72
2023/01/28 18:18:22;;;;;;;1999.90;999.90;;;;;;;;;;5063469;28;20095;-72
2023/01/28 18:20:56;;;;;;;1999.90;999.90;;;;;;;;;;5064627;28;20080;-72
2023/01/28 18:23:23;;;;;;;1999.90;999.90;;;;;;;;;;5060793;28;20091;-72
2023/01/28 18:25:49;;;;;;;1999.90;999.90;;;;;;;;;;5060765;28;20076;-72
2023/01/28 18:28:16;;;;;;;1999.90;999.90;;;;;;;;;;5060166;28;20581;-72
2023/01/28 18:30:44;;;;;;;1999.90;999.90;;;;;;;;;;5062113;28;20511;-72
2023/01/28 18:33:11;;;;;;;1999.90;999.90;;;;;;;;;;5065329;28;20071;-72
2023/01/28 18:35:41;;;;;;;1999.90;999.90;;;;;;;;;;5062560;28;20503;-73
2023/01/28 18:38:07;;;;;;;1999.90;999.90;;;;;;;;;;5057231;28;20083;-72
2023/01/28 18:40:34;;;;;;;1999.90;999.90;;;;;;;;;;5060822;28;20103;-72
2023/01/28 18:43:01;;;;;;;1999.90;999.90;;;;;;;;;;5057524;28;20542;-72
2023/01/28 18:45:27;;;;;;;1999.90;999.90;;;;;;;;;;5056881;28;20118;-73
2023/01/28 18:47:55;;;;;;;1999.90;999.90;;;;;;;;;;5063030;28;20083;-73
2023/01/28 18:50:22;;;;;;;1999.90;999.90;;;;;;;;;;5057168;28;20144;-73
2023/01/28 18:52:48;;;;;;;1999.90;999.90;;;;;;;;;;5055580;28;20088;-72
2023/01/28 18:55:15;;;;;;;1999.90;999.90;;;;;;;;;;5059206;28;20045;-72
2023/01/28 18:57:41;;;;;;;1999.90;999.90;;;;;;;;;;5058992;28;20091;-72
2023/01/28 19:00:09;;;;;;;1999.90;999.90;;;;;;;;;;5060769;28;20076;-72
2023/01/28 19:02:35;;;;;;;1999.90;999.90;;;;;;;;;;5060003;28;20091;-72
2023/01/28 19:05:04;;;;;;;1999.90;999.90;;;;;;;;;;5059689;28;20083;-72
2023/01/28 19:07:31;;;;;;;1999.90;999.90;;;;;;;;;;5061804;28;20069;-73
2023/01/28 19:09:57;;;;;;;1999.90;999.90;;;;;;;;;;5063628;28;20103;-72
2023/01/28 19:12:24;;;;;;;1999.90;999.90;;;;;;;;;;5063421;28;20083;-73
2023/01/28 19:14:50;;;;;;;1999.90;999.90;;;;;;;;;;5062108;28;20069;-72
2023/01/28 19:17:17;;;;;;;1999.90;999.90;;;;;;;;;;5059137;28;20406;-72
2023/01/28 19:19:43;;;;;;;1999.90;999.90;;;;;;;;;;5062116;28;20462;-73
2023/01/28 19:22:11;;;;;;;1999.90;999.90;;;;;;;;;;5062543;28;20106;-73
2023/01/28 19:24:38;;;;;;;1999.90;999.90;;;;;;;;;;5064465;28;20084;-73
2023/01/28 19:27:04;;;;;;;1999.90;999.90;;;;;;;;;;5063423;28;20504;-72
2023/01/28 19:29:31;;;;;;;1999.90;999.90;;;;;;;;;;5061555;28;20416;-72
2023/01/28 19:31:57;;;;;;;1999.90;999.90;;;;;;;;;;5060902;28;20101;-73
2023/01/28 19:34:24;;;;;;;1999.90;999.90;;;;;;;;;;5060655;28;20084;-72
2023/01/28 19:36:51;;;;;;;1999.90;999.90;;;;;;;;;;5060748;28;20269;-72
2023/01/28 19:39:19;;;;;;;1999.90;999.90;;;;;;;;;;5058146;28;20210;-72
2023/01/28 19:41:45;;;;;;;1999.90;999.90;;;;;;;;;;5063585;28;20509;-72
2023/01/28 19:44:12;;;;;;;1999.90;999.90;;;;;;;;;;5060295;28;20040;-72
2023/01/28 19:46:40;;;;;;;1999.90;999.90;;;;;;;;;;5057752;28;20138;-72
2023/01/28 19:49:09;;;;;;;1999.90;999.90;;;;;;;;;;5056481;28;20047;-72
2023/01/28 19:51:35;;;;;;;1999.90;999.90;;;;;;;;;;5059882;28;20056;-72
2023/01/28 19:54:02;;;;;;;1999.90;999.90;;;;;;;;;;5067594;28;20044;-72
2023/01/28 19:56:30;;;;;;;1999.90;999.90;;;;;;;;;;5062385;28;20464;-72
2023/01/28 19:58:56;;;;;;;1999.90;999.90;;;;;;;;;;5057774;28;20110;-72
2023/01/28 20:01:25;;;;;;;1999.90;999.90;;;;;;;;;;5061250;28;20076;-72
2023/01/28 20:03:53;;;;;;;1999.90;999.90;;;;;;;;;;5056108;28;20083;-72
2023/01/28 20:06:21;;;;;;;1999.90;999.90;;;;;;;;;;5057803;28;20517;-72
2023/01/28 20:08:51;;;;;;;1999.90;999.90;;;;;;;;;;5060281;28;20051;-72
2023/01/28 20:11:18;;;;;;;1999.90;999.90;;;;;;;;;;5057448;28;20072;-72
2023/01/28 20:13:47;;;;;;;1999.90;999.90;;;;;;;;;;5062121;28;20137;-72
2023/01/28 20:16:17;;;;;;;1999.90;999.90;;;;;;;;;;5052998;28;20045;-72
2023/01/28 20:18:48;;;;;;;1999.90;999.90;;;;;;;;;;5059133;28;20052;-72
2023/01/28 20:21:15;;;;;;;1999.90;999.90;;;;;;;;;;5063406;28;20113;-72
2023/01/28 20:23:41;;;;;;;1999.90;999.90;;;;;;;;;;5059408;28;20091;-72
2023/01/28 20:26:08;;;;;;;1999.90;999.90;;;;;;;;;;5057825;28;20075;-72
2023/01/28 20:28:34;;;;;;;1999.90;999.90;;;;;;;;;;5064341;28;20094;-72
2023/01/28 20:31:05;;;;;;;1999.90;999.90;;;;;;;;;;5062492;28;20072;-72
2023/01/28 20:33:31;;;;;;;1999.90;999.90;;;;;;;;;;5062820;28;20494;-72
2023/01/28 20:36:03;;;;;;;1999.90;999.90;;;;;;;;;;5061619;28;20073;-72
2023/01/28 20:38:30;;;;;;;1999.90;999.90;;;;;;;;;;5055262;28;20076;-72
2023/01/28 20:40:56;;;;;;;1999.90;999.90;;;;;;;;;;5066579;28;20134;-72
2023/01/28 20:43:23;;;;;;;1999.90;999.90;;;;;;;;;;5063348;28;20053;-72
2023/01/28 20:45:50;;;;;;;1999.90;999.90;;;;;;;;;;5061238;28;20142;-72
2023/01/28 20:48:17;;;;;;;1999.90;999.90;;;;;;;;;;5058166;28;20312;-72
2023/01/28 20:50:44;;;;;;;1999.90;999.90;;;;;;;;;;5056543;28;20088;-72
2023/01/28 20:53:11;;;;;;;1999.90;999.90;;;;;;;;;;5057807;28;20466;-72
2023/01/28 20:55:37;;;;;;;1999.90;999.90;;;;;;;;;;5056111;28;20045;-72
2023/01/28 20:58:04;;;;;;;1999.90;999.90;;;;;;;;;;5058050;28;20448;-72
2023/01/28 21:00:30;;;;;;;1999.90;999.90;;;;;;;;;;5060502;28;20100;-71
2023/01/28 21:02:58;;;;;;;1999.90;999.90;;;;;;;;;;5060523;28;20068;-72
2023/01/28 21:05:26;;;;;;;1999.90;999.90;;;;;;;;;;5060525;28;20143;-72
2023/01/28 21:07:52;;;;;;;1999.90;999.90;;;;;;;;;;5052820;28;20077;-72
2023/01/28 21:10:19;;;;;;;1999.90;999.90;;;;;;;;;;5054684;28;20052;-72
2023/01/28 21:12:46;;;;;;;1999.90;999.90;;;;;;;;;;5060028;28;20088;-72
2023/01/28 21:15:12;;;;;;;1999.90;999.90;;;;;;;;;;5055085;28;20103;-72
2023/01/28 21:17:39;;;;;;;1999.90;999.90;;;;;;;;;;5057116;28;20127;-72
2023/01/28 21:20:07;;;;;;;1999.90;999.90;;;;;;;;;;5060983;28;20471;-72
2023/01/28 21:22:35;;;;;;;1999.90;999.90;;;;;;;;;;5051588;28;20504;-71
2023/01/28 21:25:02;;;;;;;1999.90;999.90;;;;;;;;;;5059759;28;20543;-72
2023/01/28 21:27:28;;;;;;;1999.90;999.90;;;;;;;;;;5058096;28;20084;-72
2023/01/28 21:29:55;;;;;;;1999.90;999.90;;;;;;;;;;5054553;28;20053;-72
2023/01/28 21:32:21;;;;;;;1999.90;999.90;;;;;;;;;;5053100;28;20090;-72
2023/01/28 21:34:48;;;;;;;1999.90;999.90;;;;;;;;;;5053930;28;20458;-72
2023/01/28 21:37:14;;;;;;;1999.90;999.90;;;;;;;;;;5054214;28;20135;-72
2023/01/28 21:39:42;;;;;;;1999.90;999.90;;;;;;;;;;5058705;28;20447;-71
2023/01/28 21:42:09;;;;;;;1999.90;999.90;;;;;;;;;;5050132;28;20329;-72
2023/01/28 21:44:35;;;;;;;1999.90;999.90;;;;;;;;;;5055751;28;20091;-72
2023/01/28 21:47:02;;;;;;;1999.90;999.90;;;;;;;;;;5057303;28;20073;-72
2023/01/28 21:49:28;;;;;;;1999.90;999.90;;;;;;;;;;5058939;28;20041;-73
2023/01/28 21:51:55;;;;;;;1999.90;999.90;;;;;;;;;;5058356;28;20084;-72
2023/01/28 21:54:21;;;;;;;1999.90;999.90;;;;;;;;;;5058935;28;20037;-72
2023/01/28 21:56:50;;;;;;;1999.90;999.90;;;;;;;;;;5055069;28;20088;-72
2023/01/28 21:59:31;;;;;;;1999.90;999.90;;;;;;;;;;5054772;28;20049;-72
2023/01/28 22:01:59;;;;;;;1999.90;999.90;;;;;;;;;;5054789;28;20053;-72
2023/01/28 22:04:27;;;;;;;1999.90;999.90;;;;;;;;;;5059492;28;20102;-72
2023/01/28 22:06:54;;;;;;;1999.90;999.90;;;;;;;;;;5062195;28;20096;-72
2023/01/28 22:09:21;;;;;;;1999.90;999.90;;;;;;;;;;5059695;28;20057;-72
2023/01/28 22:11:49;;;;;;;1999.90;999.90;;;;;;;;;;5056112;28;20049;-72
2023/01/28 22:14:15;;;;;;;1999.90;999.90;;;;;;;;;;5053077;28;20128;-72
2023/01/28 22:16:42;;;;;;;1999.90;999.90;;;;;;;;;;5052661;28;20087;-72
2023/01/28 22:19:09;;;;;;;1999.90;999.90;;;;;;;;;;5056050;28;20484;-71
2023/01/28 22:21:39;;;;;;;1999.90;999.90;;;;;;;;;;5053060;28;20076;-71
2023/01/28 22:24:10;;;;;;;1999.90;999.90;;;;;;;;;;5061065;28;20076;-71
2023/01/28 22:26:37;;;;;;;1999.90;999.90;;;;;;;;;;5056111;28;20140;-72
2023/01/28 22:29:06;;;;;;;1999.90;999.90;;;;;;;;;;5056283;28;20117;-71
2023/01/28 22:31:33;;;;;;;1999.90;999.90;;;;;;;;;;5058990;28;20084;-71
2023/01/28 22:34:00;;;;;;;1999.90;999.90;;;;;;;;;;5058058;28;20073;-72
2023/01/28 22:36:26;;;;;;;1999.90;999.90;;;;;;;;;;5049386;28;20069;-72
2023/01/28 22:38:53;;;;;;;1999.90;999.90;;;;;;;;;;5060647;28;20076;-72
2023/01/28 22:41:21;;;;;;;1999.90;999.90;;;;;;;;;;5060507;28;20107;-72
2023/01/28 22:43:48;;;;;;;1999.90;999.90;;;;;;;;;;5060776;28;20500;-73
2023/01/28 22:46:17;;;;;;;1999.90;999.90;;;;;;;;;;5058713;28;20052;-72
2023/01/28 22:48:44;;;;;;;1999.90;999.90;;;;;;;;;;5062885;28;20057;-72
2023/01/28 22:51:14;;;;;;;1999.90;999.90;;;;;;;;;;5057352;28;20493;-72
2023/01/28 22:53:41;;;;;;;1999.90;999.90;;;;;;;;;;5060871;28;20065;-72
2023/01/28 22:56:07;;;;;;;1999.90;999.90;;;;;;;;;;5058694;28;20084;-72
2023/01/28 22:58:34;;;;;;;1999.90;999.90;;;;;;;;;;5058276;28;20103;-72
2023/01/28 23:01:00;;;;;;;1999.90;999.90;;;;;;;;;;5057795;28;20076;-72
2023/01/28 23:03:28;;;;;;;1999.90;999.90;;;;;;;;;;5056741;28;20072;-72
2023/01/28 23:05:57;;;;;;;1999.90;999.90;;;;;;;;;;5055286;28;20107;-72
2023/01/28 23:08:24;;;;;;;1999.90;999.90;;;;;;;;;;5061511;28;20076;-72
2023/01/28 23:10:50;;;;;;;1999.90;999.90;;;;;;;;;;5063655;28;20497;-72
2023/01/28 23:13:17;;;;;;;1999.90;999.90;;;;;;;;;;5062357;28;20072;-72
2023/01/28 23:26:43;;;;;;;1999.90;999.90;;;;;;;;;;5057655;28;20060;-72
2023/01/28 23:29:09;;;;;;;1999.90;999.90;;;;;;;;;;5052672;28;20052;-72
2023/01/28 23:31:40;;;;;;;1999.90;999.90;;;;;;;;;;5062309;28;20501;-72
2023/01/28 23:34:09;;;;;;;1999.90;999.90;;;;;;;;;;5062030;28;20088;-71
2023/01/28 23:36:35;;;;;;;1999.90;999.90;;;;;;;;;;5061453;28;20131;-71
2023/01/28 23:39:02;;;;;;;1999.90;999.90;;;;;;;;;;5059826;28;20135;-72
2023/01/28 23:41:29;;;;;;;1999.90;999.90;;;;;;;;;;5057952;28;20072;-72
2023/01/28 23:43:55;;;;;;;1999.90;999.90;;;;;;;;;;5058425;28;20076;-72
2023/01/28 23:46:22;;;;;;;1999.90;999.90;;;;;;;;;;5056040;28;20119;-72
2023/01/28 23:48:50;;;;;;;1999.90;999.90;;;;;;;;;;5055914;28;20075;-72
2023/01/28 23:51:18;;;;;;;1999.90;999.90;;;;;;;;;;5059618;28;20131;-72
2023/01/28 23:53:44;;;;;;;1999.90;999.90;;;;;;;;;;5058389;28;20079;-72
2023/01/28 23:56:11;;;;;;;1999.90;999.90;;;;;;;;;;5059866;28;20098;-71
2023/01/28 23:58:38;;;;;;;1999.90;999.90;;;;;;;;;;5060651;28;20084;-72
